createdAt,value
2019-01-08T00:01:13.743Z,99698.75
2019-01-08T00:03:45.660Z,99698.32
2019-01-08T00:06:17.377Z,99701.31
2019-01-08T00:08:49.126Z,99690.26
2019-01-08T00:11:20.865Z,99695.34
2019-01-08T00:13:52.609Z,99685.56
2019-01-08T00:16:24.404Z,99683.03
2019-01-08T00:18:58.343Z,99688.55
2019-01-08T00:21:30.129Z,99680.87
2019-01-08T00:24:02.122Z,99683.00
2019-01-08T00:26:33.878Z,99677.91
2019-01-08T00:29:05.880Z,99674.09
2019-01-08T00:31:37.558Z,99675.77
2019-01-08T00:34:09.532Z,99671.95
2019-01-08T00:36:41.488Z,99674.51
2019-01-08T00:39:13.379Z,99681.30
2019-01-08T00:41:45.170Z,99677.88
2019-01-08T00:44:17.013Z,99677.46
2019-01-08T00:46:48.792Z,99672.33
2019-01-08T00:49:20.982Z,99671.03
2019-01-08T00:51:52.952Z,99672.73
2019-01-08T00:54:24.765Z,99664.66
2019-01-08T00:56:56.328Z,99661.27
2019-01-08T00:59:28.147Z,99658.72
2019-01-08T01:01:59.743Z,99659.16
2019-01-08T01:04:31.520Z,99660.45
2019-01-08T01:07:03.981Z,99656.20
2019-01-08T01:09:35.798Z,99656.61
2019-01-08T01:12:07.747Z,99665.15
2019-01-08T01:14:39.487Z,99659.61
2019-01-08T01:17:11.238Z,99664.27
2019-01-08T01:19:43.238Z,99656.19
2019-01-08T01:22:15.270Z,99652.77
2019-01-08T01:24:47.730Z,99654.05
2019-01-08T01:27:19.437Z,99656.59
2019-01-08T01:29:51.054Z,99654.49
2019-01-08T01:32:22.713Z,99651.95
2019-01-08T01:34:55.481Z,99648.54
2019-01-08T01:37:27.304Z,99645.56
2019-01-08T01:39:59.543Z,99647.26
2019-01-08T01:42:31.269Z,99639.59
2019-01-08T01:45:02.867Z,99640.44
2019-01-08T01:47:34.574Z,99635.75
2019-01-08T01:50:06.901Z,99631.90
2019-01-08T01:52:38.556Z,99631.45
2019-01-08T01:55:11.156Z,99637.39
2019-01-08T01:57:42.731Z,99625.48
2019-01-08T02:00:14.306Z,99630.19
2019-01-08T02:02:47.324Z,99619.61
2019-01-08T02:05:18.871Z,99607.70
2019-01-08T02:07:50.381Z,99612.80
2019-01-08T02:10:22.494Z,99597.06
2019-01-08T02:12:54.234Z,99596.63
2019-01-08T02:15:26.049Z,99591.52
2019-01-08T02:17:59.683Z,99585.55
2019-01-08T02:20:31.469Z,99579.59
2019-01-08T02:23:03.039Z,99580.44
2019-01-08T02:25:34.610Z,99579.54
2019-01-08T02:28:06.345Z,99570.62
2019-01-08T02:30:38.362Z,99573.14
2019-01-08T02:33:09.945Z,99576.97
2019-01-08T02:35:41.993Z,99571.92
2019-01-08T02:38:13.618Z,99574.49
2019-01-08T02:40:45.633Z,99573.23
2019-01-08T02:43:17.276Z,99571.53
2019-01-08T02:45:49.742Z,99574.53
2019-01-08T02:48:21.489Z,99571.55
2019-01-08T02:50:53.451Z,99567.71
2019-01-08T02:53:25.289Z,99567.69
2019-01-08T02:55:57.082Z,99564.72
2019-01-08T02:58:28.916Z,99566.83
2019-01-08T03:01:00.716Z,99564.68
2019-01-08T03:03:32.403Z,99566.80
2019-01-08T03:06:03.924Z,99566.37
2019-01-08T03:08:35.577Z,99571.88
2019-01-08T03:11:07.459Z,99571.89
2019-01-08T03:13:39.246Z,99561.28
2019-01-08T03:16:10.846Z,99565.09
2019-01-08T03:18:42.600Z,99558.30
2019-01-08T03:21:14.364Z,99545.56
2019-01-08T03:23:45.970Z,99535.41
2019-01-08T03:26:17.697Z,99535.38
2019-01-08T03:28:49.320Z,99537.51
2019-01-08T03:31:21.271Z,99532.83
2019-01-08T03:33:53.046Z,99535.81
2019-01-08T03:36:24.905Z,99534.11
2019-01-08T03:38:56.457Z,99529.44
2019-01-08T03:41:28.160Z,99531.58
2019-01-08T03:44:00.390Z,99516.25
2019-01-08T03:46:32.258Z,99522.64
2019-01-08T03:49:04.799Z,99515.83
2019-01-08T03:51:36.591Z,99518.81
2019-01-08T03:54:09.602Z,99516.70
2019-01-08T03:56:41.208Z,99517.55
2019-01-08T03:59:13.240Z,99511.17
2019-01-08T04:01:44.933Z,99513.27
2019-01-08T04:04:16.515Z,99512.41
2019-01-08T04:06:48.251Z,99503.88
2019-01-08T04:09:20.056Z,99506.02
2019-01-08T04:11:52.039Z,99506.39
2019-01-08T04:14:23.625Z,99500.02
2019-01-08T04:16:55.377Z,99496.61
2019-01-08T04:19:26.959Z,99491.95
2019-01-08T04:21:58.833Z,99490.69
2019-01-08T04:24:30.544Z,99488.16
2019-01-08T04:27:02.129Z,99483.47
2019-01-08T04:29:33.723Z,99478.38
2019-01-08T04:32:05.336Z,99474.98
2019-01-08T04:34:37.032Z,99473.73
2019-01-08T04:37:08.551Z,99473.71
2019-01-08T04:39:40.415Z,99479.26
2019-01-08T04:42:11.987Z,99480.95
2019-01-08T04:44:43.562Z,99480.09
2019-01-08T04:47:15.143Z,99480.55
2019-01-08T04:49:46.773Z,99487.77
2019-01-08T04:52:19.530Z,99491.59
2019-01-08T04:54:51.156Z,99498.81
2019-01-08T04:57:22.925Z,99480.91
2019-01-08T04:59:58.885Z,99488.56
2019-01-08T05:02:28.247Z,99489.45
2019-01-08T05:04:59.812Z,99492.00
2019-01-08T05:07:31.795Z,99486.06
2019-01-08T05:10:03.544Z,99484.77
2019-01-08T05:12:35.198Z,99485.18
2019-01-08T05:15:08.155Z,99483.04
2019-01-08T05:17:40.206Z,99486.89
2019-01-08T05:20:12.117Z,99483.48
2019-01-08T05:22:43.881Z,99485.20
2019-01-08T05:25:18.157Z,99480.95
2019-01-08T05:27:49.887Z,99483.08
2019-01-08T05:30:21.675Z,99473.70
2019-01-08T05:32:53.835Z,99466.03
2019-01-08T05:35:25.890Z,99468.17
2019-01-08T05:37:57.617Z,99460.13
2019-01-08T05:40:29.370Z,99456.31
2019-01-08T05:43:00.893Z,99458.89
2019-01-08T05:45:32.472Z,99452.93
2019-01-08T05:48:04.161Z,99446.97
2019-01-08T05:50:35.769Z,99441.88
2019-01-08T05:53:07.369Z,99450.37
2019-01-08T05:55:38.982Z,99445.69
2019-01-08T05:58:10.835Z,99442.75
2019-01-08T06:00:42.701Z,99439.33
2019-01-08T06:03:14.558Z,99447.41
2019-01-08T06:05:46.559Z,99445.28
2019-01-08T06:08:36.867Z,99441.02
2019-01-08T06:11:08.761Z,99432.97
2019-01-08T06:13:40.628Z,99428.70
2019-01-08T06:16:12.736Z,99421.48
2019-01-08T06:18:44.662Z,99420.20
2019-01-08T06:21:16.287Z,99418.92
2019-01-08T06:23:47.945Z,99420.20
2019-01-08T06:26:19.550Z,99418.94
2019-01-08T06:28:51.294Z,99417.68
2019-01-08T06:31:22.951Z,99406.61
2019-01-08T06:33:54.611Z,99404.49
2019-01-08T06:36:26.407Z,99401.50
2019-01-08T06:38:57.915Z,99401.08
2019-01-08T06:41:29.551Z,99396.82
2019-01-08T06:44:01.461Z,99387.92
2019-01-08T06:46:33.281Z,99381.13
2019-01-08T06:49:05.409Z,99378.12
2019-01-08T06:51:37.477Z,99379.41
2019-01-08T06:54:09.256Z,99373.02
2019-01-08T06:56:41.017Z,99369.19
2019-01-08T06:59:12.923Z,99365.36
2019-01-08T07:01:44.662Z,99368.73
2019-01-08T07:04:16.510Z,99368.74
2019-01-08T07:06:48.306Z,99371.73
2019-01-08T07:09:20.049Z,99370.05
2019-01-08T07:11:51.833Z,99368.74
2019-01-08T07:14:23.700Z,99364.05
2019-01-08T07:16:57.756Z,99355.04
2019-01-08T07:19:32.376Z,99354.13
2019-01-08T07:22:04.148Z,99351.05
2019-01-08T07:24:35.870Z,99366.61
2019-01-08T07:27:07.718Z,99369.56
2019-01-08T07:29:42.533Z,99376.73
2019-01-08T07:32:14.270Z,99372.89
2019-01-08T07:34:45.833Z,99368.55
2019-01-08T07:37:17.657Z,99367.67
2019-01-08T07:39:49.461Z,99362.87
2019-01-08T07:42:21.145Z,99363.53
2019-01-08T07:44:52.931Z,99351.38
2019-01-08T07:47:24.771Z,99349.88
2019-01-08T07:49:57.524Z,99358.14
2019-01-08T07:52:29.763Z,99354.25
2019-01-08T07:55:01.731Z,99349.73
2019-01-08T07:57:33.743Z,99347.38
2019-01-08T08:00:05.857Z,99340.17
2019-01-08T08:02:37.634Z,99332.92
2019-01-08T08:05:10.065Z,99326.92
2019-01-08T08:07:41.769Z,99328.51
2019-01-08T08:10:13.861Z,99323.81
2019-01-08T08:12:45.760Z,99312.41
2019-01-08T08:15:17.619Z,99321.02
2019-01-08T08:17:49.522Z,99318.66
2019-01-08T08:20:21.449Z,99329.23
2019-01-08T08:22:53.258Z,99327.05
2019-01-08T08:25:25.736Z,99318.79
2019-01-08T08:27:57.783Z,99319.58
2019-01-08T08:30:29.383Z,99319.26
2019-01-08T08:33:01.468Z,99326.78
2019-01-08T08:35:33.044Z,99321.22
2019-01-08T08:38:04.826Z,99315.05
2019-01-08T08:40:36.588Z,99305.59
2019-01-08T08:43:08.519Z,99304.60
2019-01-08T08:45:42.240Z,99293.55
2019-01-08T08:48:13.818Z,99285.61
2019-01-08T08:50:45.430Z,99279.34
2019-01-08T08:53:17.017Z,99282.64
2019-01-08T08:55:48.533Z,99286.30
2019-01-08T08:58:20.266Z,99287.03
2019-01-08T09:00:52.394Z,99288.84
2019-01-08T09:03:24.134Z,99294.84
2019-01-08T09:05:56.783Z,99296.84
2019-01-08T09:08:28.722Z,99296.95
2019-01-08T09:11:00.816Z,99301.57
2019-01-08T09:13:32.504Z,99297.94
2019-01-08T09:16:04.897Z,99303.06
2019-01-08T09:18:36.740Z,99299.20
2019-01-08T09:21:08.583Z,99297.70
2019-01-08T09:23:40.370Z,99291.48
2019-01-08T09:26:13.483Z,99292.48
2019-01-08T09:28:45.941Z,99283.22
2019-01-08T09:31:17.852Z,99279.84
2019-01-08T09:33:49.421Z,99275.97
2019-01-08T09:36:21.280Z,99262.50
2019-01-08T09:38:53.179Z,99245.57
2019-01-08T09:41:25.074Z,99243.11
2019-01-08T09:43:57.099Z,99237.86
2019-01-08T09:46:28.757Z,99238.61
2019-01-08T09:49:00.680Z,99230.45
2019-01-08T09:51:32.644Z,99226.23
2019-01-08T09:54:04.414Z,99228.17
2019-01-08T09:56:36.001Z,99216.53
2019-01-08T09:59:08.690Z,99213.23
2019-01-08T10:01:40.498Z,99207.96
2019-01-08T10:04:12.230Z,99197.38
2019-01-08T10:06:43.735Z,99191.83
2019-01-08T10:09:15.472Z,99187.36
2019-01-08T10:11:47.099Z,99179.87
2019-01-08T10:14:18.687Z,99171.60
2019-01-08T10:16:50.349Z,99167.12
2019-01-08T10:19:22.165Z,99159.69
2019-01-08T10:21:53.644Z,99149.02
2019-01-08T10:24:25.331Z,99139.84
2019-01-08T10:26:57.465Z,99141.75
2019-01-08T10:29:29.260Z,99131.23
2019-01-08T10:32:00.959Z,99131.73
2019-01-08T10:34:32.644Z,99126.00
2019-01-08T10:37:04.864Z,99131.47
2019-01-08T10:39:36.636Z,99128.95
2019-01-08T10:42:07.429Z,99121.77
2019-01-08T10:44:39.326Z,99109.70
2019-01-08T10:47:14.162Z,99100.36
2019-01-08T10:49:46.219Z,99085.99
2019-01-08T10:52:18.927Z,99070.95
2019-01-08T10:54:51.307Z,99070.19
2019-01-08T10:57:25.430Z,99060.02
2019-01-08T10:59:57.447Z,99063.45
2019-01-08T11:02:29.378Z,99064.53
2019-01-08T11:05:01.181Z,99061.92
2019-01-08T11:07:33.024Z,99049.63
2019-01-08T11:10:04.926Z,99041.13
2019-01-08T11:12:36.742Z,99035.60
2019-01-08T11:15:09.199Z,99012.61
2019-01-08T11:17:41.232Z,99009.67
2019-01-08T11:20:12.851Z,98998.95
2019-01-08T11:22:44.664Z,98999.69
2019-01-08T11:25:16.941Z,98992.51
2019-01-08T11:27:48.991Z,98971.78
2019-01-08T11:30:21.008Z,98971.09
2019-01-08T11:32:55.117Z,98971.26
2019-01-08T11:35:26.911Z,98953.75
2019-01-08T11:37:58.807Z,98948.52
2019-01-08T11:40:30.942Z,98940.72
2019-01-08T11:43:03.015Z,98940.19
2019-01-08T11:45:35.243Z,98938.06
2019-01-08T11:48:07.082Z,98929.86
2019-01-08T11:50:40.298Z,98920.05
2019-01-08T11:53:12.662Z,98908.65
2019-01-08T11:55:44.725Z,98897.42
2019-01-08T11:58:16.951Z,98897.66
2019-01-08T12:00:48.995Z,98880.63
2019-01-08T12:03:20.716Z,98882.77
2019-01-08T12:05:52.864Z,98875.13
2019-01-08T12:08:24.682Z,98869.61
2019-01-08T12:10:56.277Z,98861.56
2019-01-08T12:13:28.077Z,98857.56
2019-01-08T12:15:59.877Z,98850.56
2019-01-08T12:18:31.598Z,98837.98
2019-01-08T12:21:03.395Z,98831.16
2019-01-08T12:23:35.725Z,98822.13
2019-01-08T12:26:07.580Z,98814.17
2019-01-08T12:28:40.287Z,98807.34
2019-01-08T12:31:12.117Z,98795.08
2019-01-08T12:33:43.993Z,98783.66
2019-01-08T12:36:17.246Z,98777.80
2019-01-08T12:38:48.982Z,98772.53
2019-01-08T12:41:20.612Z,98761.45
2019-01-08T12:43:52.442Z,98748.95
2019-01-08T12:46:24.948Z,98738.41
2019-01-08T12:48:57.912Z,98725.59
2019-01-08T12:51:30.078Z,98708.70
2019-01-08T12:54:02.259Z,98717.91
2019-01-08T12:56:34.057Z,98714.30
2019-01-08T12:59:06.345Z,98710.56
2019-01-08T13:01:38.412Z,98712.27
2019-01-08T13:04:10.104Z,98709.62
2019-01-08T13:06:43.671Z,98704.27
2019-01-08T13:09:15.601Z,98688.44
2019-01-08T13:11:47.157Z,98691.62
2019-01-08T13:14:18.818Z,98684.31
2019-01-08T13:16:50.499Z,98683.77
2019-01-08T13:19:22.531Z,98668.13
2019-01-08T13:21:54.649Z,98670.30
2019-01-08T13:24:26.578Z,98665.34
2019-01-08T13:26:58.456Z,98660.84
2019-01-08T13:29:30.410Z,98651.33
2019-01-08T13:32:02.166Z,98659.06
2019-01-08T13:34:34.071Z,98650.92
2019-01-08T13:37:05.942Z,98667.82
2019-01-08T13:39:37.978Z,98657.53
2019-01-08T13:42:09.835Z,98654.23
2019-01-08T13:44:41.808Z,98652.31
2019-01-08T13:47:13.535Z,98652.92
2019-01-08T13:49:48.195Z,98646.45
2019-01-08T13:52:19.984Z,98645.52
2019-01-08T13:54:51.747Z,98646.78
2019-01-08T13:57:23.425Z,98641.43
2019-01-08T13:59:55.420Z,98633.18
2019-01-08T14:02:31.976Z,98627.12
2019-01-08T14:05:01.085Z,98617.84
2019-01-08T14:07:33.526Z,98607.76
2019-01-08T14:10:05.822Z,98609.98
2019-01-08T14:12:37.748Z,98602.50
2019-01-08T14:15:09.814Z,98595.26
2019-01-08T14:17:41.806Z,98597.33
2019-01-08T14:20:13.865Z,98594.35
2019-01-08T14:22:46.053Z,98588.89
2019-01-08T14:25:17.757Z,98580.80
2019-01-08T14:27:50.129Z,98576.06
2019-01-08T14:30:21.944Z,98568.55
2019-01-08T14:32:53.865Z,98573.24
2019-01-08T14:35:25.890Z,98566.70
2019-01-08T14:37:58.020Z,98564.83
2019-01-08T14:40:30.111Z,98561.79
2019-01-08T14:43:02.048Z,98552.52
2019-01-08T14:45:34.252Z,98548.44
2019-01-08T14:48:05.947Z,98547.55
2019-01-08T14:50:38.354Z,98538.91
2019-01-08T14:53:10.256Z,98541.10
2019-01-08T14:55:42.272Z,98531.06
2019-01-08T14:58:14.083Z,98532.19
2019-01-08T15:00:46.360Z,98527.95
2019-01-08T15:03:18.804Z,98531.33
2019-01-08T15:05:51.041Z,98526.42
2019-01-08T15:08:24.291Z,98527.27
2019-01-08T15:10:56.060Z,98527.27
2019-01-08T15:13:28.584Z,98516.64
2019-01-08T15:16:01.823Z,98531.79
2019-01-08T15:18:34.375Z,98520.48
2019-01-08T15:21:06.280Z,98522.52
2019-01-08T15:23:38.786Z,98522.98
2019-01-08T15:26:10.214Z,98520.59
2019-01-08T15:28:41.990Z,98524.45
2019-01-08T15:31:14.321Z,98520.88
2019-01-08T15:33:47.469Z,98512.05
2019-01-08T15:36:19.427Z,98508.61
2019-01-08T15:38:51.417Z,98509.74
2019-01-08T15:41:23.337Z,98499.05
2019-01-08T15:43:55.395Z,98500.23
2019-01-08T15:46:27.561Z,98489.66
2019-01-08T15:49:11.234Z,98482.99
2019-01-08T15:51:43.066Z,98479.48
2019-01-08T15:54:15.170Z,98473.94
2019-01-08T15:56:47.396Z,98473.20
2019-01-08T15:59:19.678Z,98470.67
2019-01-08T16:01:52.412Z,98465.37
2019-01-08T16:04:24.715Z,98460.17
2019-01-08T16:06:56.674Z,98451.69
2019-01-08T16:09:28.916Z,98452.86
2019-01-08T16:12:01.205Z,98443.42
2019-01-08T16:14:34.785Z,98433.37
2019-01-08T16:17:11.550Z,98430.84
2019-01-08T16:19:44.170Z,98417.34
2019-01-08T16:22:15.925Z,98411.62
2019-01-08T16:24:48.443Z,98409.59
2019-01-08T16:27:21.643Z,98400.26
2019-01-08T16:29:54.299Z,98399.34
2019-01-08T16:32:26.257Z,98406.25
2019-01-08T16:34:58.262Z,98398.71
2019-01-08T16:37:30.581Z,98397.06
2019-01-08T16:40:02.985Z,98400.64
2019-01-08T16:42:35.341Z,98407.34
2019-01-08T16:45:07.538Z,98401.56
2019-01-08T16:47:40.102Z,98408.36
2019-01-08T16:50:12.447Z,98402.53
2019-01-08T16:52:44.382Z,98401.31
2019-01-08T16:55:16.615Z,98397.03
2019-01-08T16:57:49.316Z,98397.97
2019-01-08T17:00:21.260Z,98395.86
2019-01-08T17:02:53.268Z,98385.86
2019-01-08T17:05:25.095Z,98382.52
2019-01-08T17:07:56.948Z,98374.91
2019-01-08T17:10:28.760Z,98375.16
2019-01-08T17:13:00.589Z,98375.02
2019-01-08T17:15:33.253Z,98369.36
2019-01-08T17:18:05.027Z,98364.73
2019-01-08T17:20:37.642Z,98361.73
2019-01-08T17:23:10.380Z,98365.19
2019-01-08T17:25:47.791Z,98362.31
2019-01-08T17:28:16.633Z,98357.11
2019-01-08T17:30:49.575Z,98359.66
2019-01-08T17:33:22.122Z,98351.62
2019-01-08T17:35:54.817Z,98348.97
2019-01-08T17:38:27.451Z,98346.68
2019-01-08T17:40:59.798Z,98339.08
2019-01-08T17:43:33.590Z,98335.44
2019-01-08T17:46:06.070Z,98341.26
2019-01-08T17:48:40.123Z,98342.83
2019-01-08T17:51:12.467Z,98344.81
2019-01-08T17:53:45.763Z,98341.66
2019-01-08T17:56:17.716Z,98343.09
2019-01-08T17:59:12.742Z,98332.17
2019-01-08T18:02:01.368Z,98338.35
2019-01-08T18:04:33.458Z,98330.16
2019-01-08T18:07:06.641Z,98333.52
2019-01-08T18:09:38.352Z,98330.55
2019-01-08T18:12:11.335Z,98326.89
2019-01-08T18:14:44.437Z,98332.13
2019-01-08T18:17:17.054Z,98329.93
2019-01-08T18:19:49.025Z,98318.42
2019-01-08T18:22:21.466Z,98324.36
2019-01-08T18:24:53.739Z,98317.58
2019-01-08T18:27:25.663Z,98319.27
2019-01-08T18:29:57.426Z,98315.70
2019-01-08T18:32:31.739Z,98319.55
2019-01-08T18:35:03.535Z,98321.38
2019-01-08T18:37:36.089Z,98311.42
2019-01-08T18:40:08.300Z,98313.55
2019-01-08T18:42:40.460Z,98310.11
2019-01-08T18:45:12.427Z,98306.06
2019-01-08T18:47:46.456Z,98306.34
2019-01-08T18:50:18.522Z,98305.50
2019-01-08T18:52:55.639Z,98300.95
2019-01-08T18:55:27.522Z,98301.29
2019-01-08T18:58:01.501Z,98305.08
2019-01-08T19:00:33.807Z,98301.52
2019-01-08T19:03:05.698Z,98298.94
2019-01-08T19:05:37.667Z,98296.53
2019-01-08T19:08:10.818Z,98299.28
2019-01-08T19:10:43.101Z,98283.50
2019-01-08T19:13:14.962Z,98280.17
2019-01-08T19:15:47.135Z,98280.19
2019-01-08T19:18:19.480Z,98272.06
2019-01-08T19:20:51.297Z,98269.08
2019-01-08T19:23:24.465Z,98267.95
2019-01-08T19:25:56.518Z,98264.16
2019-01-08T19:28:29.575Z,98259.47
2019-01-08T19:31:01.539Z,98262.08
2019-01-08T19:33:34.182Z,98258.91
2019-01-08T19:36:06.034Z,98268.98
2019-01-08T19:38:38.140Z,98268.45
2019-01-08T19:41:09.880Z,98285.20
2019-01-08T19:43:41.770Z,98286.42
2019-01-08T19:46:15.293Z,98285.73
2019-01-08T19:48:47.510Z,98283.23
2019-01-08T19:51:20.970Z,98276.88
2019-01-08T19:53:52.818Z,98274.08
2019-01-08T19:56:25.239Z,98272.70
2019-01-08T19:58:57.084Z,98268.02
2019-01-08T20:01:29.561Z,98260.69
2019-01-08T20:04:03.555Z,98256.80
2019-01-08T20:06:35.585Z,98250.09
2019-01-08T20:09:09.992Z,98245.37
2019-01-08T20:11:41.717Z,98237.12
2019-01-08T20:14:14.639Z,98228.97
2019-01-08T20:16:48.398Z,98224.46
2019-01-08T20:19:20.538Z,98222.23
2019-01-08T20:21:53.419Z,98200.66
2019-01-08T20:24:26.232Z,98204.37
2019-01-08T20:26:59.152Z,98197.23
2019-01-08T20:29:31.137Z,98189.84
2019-01-08T20:32:03.068Z,98188.17
2019-01-08T20:34:35.022Z,98178.81
2019-01-08T20:37:07.311Z,98168.89
2019-01-08T20:39:39.338Z,98171.39
2019-01-08T20:42:12.230Z,98174.05
2019-01-08T20:44:45.379Z,98164.37
2019-01-08T20:47:18.697Z,98165.73
2019-01-08T20:49:50.886Z,98168.77
2019-01-08T20:52:25.056Z,98170.36
2019-01-08T20:54:57.083Z,98176.39
2019-01-08T20:57:31.919Z,98175.78
2019-01-08T21:00:05.676Z,98174.76
2019-01-08T21:02:37.942Z,98171.59
2019-01-08T21:05:09.932Z,98179.25
2019-01-08T21:07:41.909Z,98176.56
2019-01-08T21:10:14.499Z,98177.55
2019-01-08T21:12:47.076Z,98173.47
2019-01-08T21:15:21.659Z,98175.09
2019-01-08T21:17:53.598Z,98169.16
2019-01-08T21:20:26.700Z,98167.83
2019-01-08T21:23:00.624Z,98166.66
2019-01-08T21:25:33.739Z,98161.56
2019-01-08T21:28:11.390Z,98159.97
2019-01-08T21:30:44.139Z,98162.52
2019-01-08T21:33:19.497Z,98160.27
2019-01-08T21:35:52.617Z,98169.32
2019-01-08T21:38:25.201Z,98165.28
2019-01-08T21:40:57.669Z,98148.30
2019-01-08T21:43:30.405Z,98142.96
2019-01-08T21:46:03.176Z,98131.77
2019-01-08T21:48:35.188Z,98125.11
2019-01-08T21:51:07.672Z,98122.73
2019-01-08T21:53:39.935Z,98126.55
2019-01-08T21:56:11.996Z,98126.47
2019-01-08T21:58:44.046Z,98134.92
2019-01-08T22:01:15.937Z,98137.36
2019-01-08T22:03:48.162Z,98142.64
2019-01-08T22:06:20.513Z,98141.19
2019-01-08T22:08:53.723Z,98128.48
2019-01-08T22:11:25.982Z,98120.33
2019-01-08T22:13:58.052Z,98107.50
2019-01-08T22:16:29.774Z,98110.27
2019-01-08T22:19:01.855Z,98104.56
2019-01-08T22:21:34.281Z,98098.09
2019-01-08T22:24:06.335Z,98097.91
2019-01-08T22:26:37.916Z,98098.95
2019-01-08T22:29:09.664Z,98099.86
2019-01-08T22:31:41.972Z,98095.17
2019-01-08T22:34:13.802Z,98084.19
2019-01-08T22:36:46.248Z,98083.48
2019-01-08T22:39:18.603Z,98086.68
2019-01-08T22:41:50.475Z,98079.12
2019-01-08T22:44:22.445Z,98075.23
2019-01-08T22:46:55.459Z,98060.09
2019-01-08T22:49:27.545Z,98067.94
2019-01-08T22:51:59.851Z,98055.50
2019-01-08T22:54:31.785Z,98047.20
2019-01-08T22:57:03.466Z,98044.97
2019-01-08T22:59:35.404Z,98038.06
2019-01-08T23:02:08.100Z,98035.67
2019-01-08T23:04:40.360Z,98030.01
2019-01-08T23:07:12.543Z,98025.58
2019-01-08T23:09:45.132Z,98028.52
2019-01-08T23:12:17.815Z,98029.81
2019-01-08T23:14:49.776Z,98029.81
2019-01-08T23:17:21.638Z,98030.66
2019-01-08T23:19:53.405Z,98027.78
2019-01-08T23:22:25.153Z,98024.45
2019-01-08T23:24:56.866Z,98021.02
2019-01-08T23:27:29.003Z,98020.52
2019-01-08T23:30:00.764Z,98019.39
2019-01-08T23:32:33.289Z,98018.73
2019-01-08T23:35:05.134Z,98009.34
2019-01-08T23:37:37.489Z,98001.65
2019-01-08T23:40:09.453Z,98001.00
2019-01-08T23:42:41.505Z,98009.00
2019-01-08T23:45:13.609Z,98009.73
2019-01-08T23:47:45.096Z,98000.64
2019-01-08T23:50:17.023Z,97990.52
2019-01-08T23:53:14.639Z,97992.25
2019-01-08T23:55:51.778Z,97983.16
2019-01-08T23:58:24.941Z,97971.59
